sensor_id;sensor_type;location;lat;lon;timestamp;P1;durP1;ratioP1;P2;durP2;ratioP2
6661;SDS011;3367;48.714;8.994;2024-03-02T00:01:53;5.10;;;3.80;;
6661;SDS011;3367;48.714;8.994;2024-03-02T00:04:20;6.93;;;4.20;;
6661;SDS011;3367;48.714;8.994;2024-03-02T00:06:46;5.10;;;3.37;;
6661;SDS011;3367;48.714;8.994;2024-03-02T00:09:19;6.13;;;3.20;;
6661;SDS011;3367;48.714;8.994;2024-03-02T00:11:51;5.70;;;3.30;;
6661;SDS011;3367;48.714;8.994;2024-03-02T00:14:17;5.93;;;3.90;;
6661;SDS011;3367;48.714;8.994;2024-03-02T00:16:49;7.33;;;3.60;;
6661;SDS011;3367;48.714;8.994;2024-03-02T00:19:20;6.57;;;4.03;;
6661;SDS011;3367;48.714;8.994;2024-03-02T00:21:50;6.73;;;3.03;;
6661;SDS011;3367;48.714;8.994;2024-03-02T00:24:21;5.97;;;3.97;;
6661;SDS011;3367;48.714;8.994;2024-03-02T00:26:56;7.77;;;5.03;;
6661;SDS011;3367;48.714;8.994;2024-03-02T00:29:23;4.90;;;3.93;;
6661;SDS011;3367;48.714;8.994;2024-03-02T00:32:06;7.03;;;5.13;;
6661;SDS011;3367;48.714;8.994;2024-03-02T00:34:37;7.40;;;4.30;;
6661;SDS011;3367;48.714;8.994;2024-03-02T00:37:07;6.00;;;4.20;;
6661;SDS011;3367;48.714;8.994;2024-03-02T00:39:40;9.53;;;5.07;;
6661;SDS011;3367;48.714;8.994;2024-03-02T00:42:08;5.37;;;4.50;;
6661;SDS011;3367;48.714;8.994;2024-03-02T00:44:37;9.67;;;5.27;;
6661;SDS011;3367;48.714;8.994;2024-03-02T00:47:05;8.93;;;5.20;;
6661;SDS011;3367;48.714;8.994;2024-03-02T00:49:46;6.47;;;4.20;;
6661;SDS011;3367;48.714;8.994;2024-03-02T00:52:13;8.20;;;4.57;;
6661;SDS011;3367;48.714;8.994;2024-03-02T00:54:40;6.83;;;4.13;;
6661;SDS011;3367;48.714;8.994;2024-03-02T00:57:21;7.57;;;4.80;;
6661;SDS011;3367;48.714;8.994;2024-03-02T00:59:50;9.60;;;5.37;;
6661;SDS011;3367;48.714;8.994;2024-03-02T01:02:17;6.83;;;4.60;;
6661;SDS011;3367;48.714;8.994;2024-03-02T01:04:47;9.13;;;5.23;;
6661;SDS011;3367;48.714;8.994;2024-03-02T01:07:14;7.07;;;4.77;;
6661;SDS011;3367;48.714;8.994;2024-03-02T01:09:43;11.90;;;6.10;;
6661;SDS011;3367;48.714;8.994;2024-03-02T01:12:10;8.27;;;4.73;;
6661;SDS011;3367;48.714;8.994;2024-03-02T01:14:41;8.00;;;4.60;;
6661;SDS011;3367;48.714;8.994;2024-03-02T01:17:08;8.50;;;6.10;;
6661;SDS011;3367;48.714;8.994;2024-03-02T01:19:35;8.10;;;5.33;;
6661;SDS011;3367;48.714;8.994;2024-03-02T01:22:06;9.73;;;5.70;;
6661;SDS011;3367;48.714;8.994;2024-03-02T01:24:32;9.53;;;4.90;;
6661;SDS011;3367;48.714;8.994;2024-03-02T01:26:59;8.07;;;4.70;;
6661;SDS011;3367;48.714;8.994;2024-03-02T01:29:28;14.10;;;7.10;;
6661;SDS011;3367;48.714;8.994;2024-03-02T01:32:02;11.77;;;6.37;;
6661;SDS011;3367;48.714;8.994;2024-03-02T01:34:29;12.37;;;6.53;;
6661;SDS011;3367;48.714;8.994;2024-03-02T01:36:56;9.37;;;4.97;;
6661;SDS011;3367;48.714;8.994;2024-03-02T01:39:22;9.93;;;5.90;;
6661;SDS011;3367;48.714;8.994;2024-03-02T01:41:49;12.47;;;6.10;;
6661;SDS011;3367;48.714;8.994;2024-03-02T01:44:16;10.97;;;6.67;;
6661;SDS011;3367;48.714;8.994;2024-03-02T01:46:45;12.80;;;6.20;;
6661;SDS011;3367;48.714;8.994;2024-03-02T01:49:13;12.30;;;7.03;;
6661;SDS011;3367;48.714;8.994;2024-03-02T01:51:40;8.63;;;5.53;;
6661;SDS011;3367;48.714;8.994;2024-03-02T01:54:07;11.47;;;6.20;;
6661;SDS011;3367;48.714;8.994;2024-03-02T01:56:34;11.70;;;5.40;;
6661;SDS011;3367;48.714;8.994;2024-03-02T01:59:01;10.03;;;5.27;;
6661;SDS011;3367;48.714;8.994;2024-03-02T02:01:28;12.10;;;5.40;;
6661;SDS011;3367;48.714;8.994;2024-03-02T02:03:56;14.07;;;6.33;;
6661;SDS011;3367;48.714;8.994;2024-03-02T02:06:26;13.50;;;6.87;;
6661;SDS011;3367;48.714;8.994;2024-03-02T02:08:56;11.47;;;6.43;;
6661;SDS011;3367;48.714;8.994;2024-03-02T02:11:26;19.77;;;6.83;;
6661;SDS011;3367;48.714;8.994;2024-03-02T02:13:56;9.63;;;5.27;;
6661;SDS011;3367;48.714;8.994;2024-03-02T02:16:34;10.77;;;5.37;;
6661;SDS011;3367;48.714;8.994;2024-03-02T02:19:07;10.47;;;5.63;;
6661;SDS011;3367;48.714;8.994;2024-03-02T02:21:35;10.27;;;7.07;;
6661;SDS011;3367;48.714;8.994;2024-03-02T02:24:04;9.23;;;5.40;;
6661;SDS011;3367;48.714;8.994;2024-03-02T02:26:31;13.20;;;7.27;;
6661;SDS011;3367;48.714;8.994;2024-03-02T02:28:58;13.53;;;5.93;;
6661;SDS011;3367;48.714;8.994;2024-03-02T02:31:25;14.47;;;7.33;;
6661;SDS011;3367;48.714;8.994;2024-03-02T02:33:58;13.37;;;6.70;;
6661;SDS011;3367;48.714;8.994;2024-03-02T02:36:24;12.23;;;5.97;;
6661;SDS011;3367;48.714;8.994;2024-03-02T02:38:58;11.83;;;6.23;;
6661;SDS011;3367;48.714;8.994;2024-03-02T02:41:31;10.47;;;6.20;;
6661;SDS011;3367;48.714;8.994;2024-03-02T02:44:07;13.37;;;6.20;;
6661;SDS011;3367;48.714;8.994;2024-03-02T02:46:36;12.97;;;7.07;;
6661;SDS011;3367;48.714;8.994;2024-03-02T02:49:03;11.10;;;5.60;;
6661;SDS011;3367;48.714;8.994;2024-03-02T02:51:36;13.90;;;6.67;;
6661;SDS011;3367;48.714;8.994;2024-03-02T02:54:07;16.77;;;7.33;;
6661;SDS011;3367;48.714;8.994;2024-03-02T02:56:36;9.97;;;5.77;;
6661;SDS011;3367;48.714;8.994;2024-03-02T02:59:03;15.20;;;6.97;;
6661;SDS011;3367;48.714;8.994;2024-03-02T03:01:33;14.17;;;7.23;;
6661;SDS011;3367;48.714;8.994;2024-03-02T03:04:02;12.60;;;6.83;;
6661;SDS011;3367;48.714;8.994;2024-03-02T03:06:37;13.47;;;6.70;;
6661;SDS011;3367;48.714;8.994;2024-03-02T03:09:04;12.00;;;5.50;;
6661;SDS011;3367;48.714;8.994;2024-03-02T03:11:32;9.37;;;5.43;;
6661;SDS011;3367;48.714;8.994;2024-03-02T03:14:01;11.87;;;7.07;;
6661;SDS011;3367;48.714;8.994;2024-03-02T03:16:34;11.03;;;6.90;;
6661;SDS011;3367;48.714;8.994;2024-03-02T03:19:01;14.63;;;6.90;;
6661;SDS011;3367;48.714;8.994;2024-03-02T03:21:28;18.10;;;6.90;;
6661;SDS011;3367;48.714;8.994;2024-03-02T03:23:54;12.13;;;5.80;;
6661;SDS011;3367;48.714;8.994;2024-03-02T03:26:21;16.83;;;6.97;;
6661;SDS011;3367;48.714;8.994;2024-03-02T03:28:49;16.23;;;8.20;;
6661;SDS011;3367;48.714;8.994;2024-03-02T03:31:19;10.73;;;6.20;;
6661;SDS011;3367;48.714;8.994;2024-03-02T03:33:48;11.17;;;6.47;;
6661;SDS011;3367;48.714;8.994;2024-03-02T03:36:15;11.00;;;6.60;;
6661;SDS011;3367;48.714;8.994;2024-03-02T03:38:50;14.67;;;7.67;;
6661;SDS011;3367;48.714;8.994;2024-03-02T03:41:20;9.77;;;6.00;;
6661;SDS011;3367;48.714;8.994;2024-03-02T03:43:47;14.67;;;8.03;;
6661;SDS011;3367;48.714;8.994;2024-03-02T03:46:22;14.13;;;7.20;;
6661;SDS011;3367;48.714;8.994;2024-03-02T03:48:49;12.80;;;6.57;;
6661;SDS011;3367;48.714;8.994;2024-03-02T03:51:16;18.70;;;7.10;;
6661;SDS011;3367;48.714;8.994;2024-03-02T03:53:48;14.70;;;8.77;;
6661;SDS011;3367;48.714;8.994;2024-03-02T03:56:15;9.90;;;5.03;;
6661;SDS011;3367;48.714;8.994;2024-03-02T03:58:41;10.30;;;5.63;;
6661;SDS011;3367;48.714;8.994;2024-03-02T04:01:11;10.87;;;6.20;;
6661;SDS011;3367;48.714;8.994;2024-03-02T04:03:39;8.73;;;5.60;;
6661;SDS011;3367;48.714;8.994;2024-03-02T04:06:06;13.27;;;6.60;;
6661;SDS011;3367;48.714;8.994;2024-03-02T04:08:32;11.47;;;6.00;;
6661;SDS011;3367;48.714;8.994;2024-03-02T04:10:59;13.17;;;6.57;;
6661;SDS011;3367;48.714;8.994;2024-03-02T04:13:37;13.53;;;6.37;;
6661;SDS011;3367;48.714;8.994;2024-03-02T04:16:06;11.77;;;7.10;;
6661;SDS011;3367;48.714;8.994;2024-03-02T04:18:33;16.27;;;6.50;;
6661;SDS011;3367;48.714;8.994;2024-03-02T04:21:04;14.07;;;6.37;;
6661;SDS011;3367;48.714;8.994;2024-03-02T04:23:31;13.93;;;6.10;;
6661;SDS011;3367;48.714;8.994;2024-03-02T04:26:01;14.47;;;6.47;;
6661;SDS011;3367;48.714;8.994;2024-03-02T04:28:27;17.50;;;6.97;;
6661;SDS011;3367;48.714;8.994;2024-03-02T04:30:54;13.93;;;6.70;;
6661;SDS011;3367;48.714;8.994;2024-03-02T04:33:24;11.30;;;6.20;;
6661;SDS011;3367;48.714;8.994;2024-03-02T04:35:51;13.90;;;7.17;;
6661;SDS011;3367;48.714;8.994;2024-03-02T04:38:22;13.50;;;6.10;;
6661;SDS011;3367;48.714;8.994;2024-03-02T04:40:49;12.93;;;6.80;;
6661;SDS011;3367;48.714;8.994;2024-03-02T04:43:15;13.10;;;6.27;;
6661;SDS011;3367;48.714;8.994;2024-03-02T04:45:45;13.50;;;5.63;;
6661;SDS011;3367;48.714;8.994;2024-03-02T04:48:14;14.30;;;6.93;;
6661;SDS011;3367;48.714;8.994;2024-03-02T04:50:48;10.90;;;5.37;;
6661;SDS011;3367;48.714;8.994;2024-03-02T04:53:15;15.13;;;7.80;;
6661;SDS011;3367;48.714;8.994;2024-03-02T04:55:42;10.63;;;6.50;;
6661;SDS011;3367;48.714;8.994;2024-03-02T04:58:35;13.60;;;6.30;;
6661;SDS011;3367;48.714;8.994;2024-03-02T05:01:01;8.07;;;5.80;;
6661;SDS011;3367;48.714;8.994;2024-03-02T05:03:28;14.30;;;7.30;;
6661;SDS011;3367;48.714;8.994;2024-03-02T05:06:00;13.40;;;7.30;;
6661;SDS011;3367;48.714;8.994;2024-03-02T05:08:27;16.63;;;6.97;;
6661;SDS011;3367;48.714;8.994;2024-03-02T05:10:56;12.50;;;6.40;;
6661;SDS011;3367;48.714;8.994;2024-03-02T05:13:42;9.87;;;5.73;;
6661;SDS011;3367;48.714;8.994;2024-03-02T05:16:10;15.53;;;6.70;;
6661;SDS011;3367;48.714;8.994;2024-03-02T05:18:37;12.93;;;6.20;;
6661;SDS011;3367;48.714;8.994;2024-03-02T05:21:05;15.23;;;7.17;;
6661;SDS011;3367;48.714;8.994;2024-03-02T05:23:32;12.83;;;7.23;;
6661;SDS011;3367;48.714;8.994;2024-03-02T05:26:00;10.47;;;6.10;;
6661;SDS011;3367;48.714;8.994;2024-03-02T05:28:27;12.80;;;6.40;;
6661;SDS011;3367;48.714;8.994;2024-03-02T05:30:56;11.50;;;5.63;;
6661;SDS011;3367;48.714;8.994;2024-03-02T05:33:23;9.73;;;5.77;;
6661;SDS011;3367;48.714;8.994;2024-03-02T05:35:50;13.27;;;6.47;;
6661;SDS011;3367;48.714;8.994;2024-03-02T05:38:16;14.40;;;6.27;;
6661;SDS011;3367;48.714;8.994;2024-03-02T05:40:43;15.70;;;6.63;;
6661;SDS011;3367;48.714;8.994;2024-03-02T05:43:11;15.30;;;6.67;;
6661;SDS011;3367;48.714;8.994;2024-03-02T05:45:38;13.10;;;6.90;;
6661;SDS011;3367;48.714;8.994;2024-03-02T05:48:05;11.67;;;6.43;;
6661;SDS011;3367;48.714;8.994;2024-03-02T05:50:33;11.97;;;5.40;;
6661;SDS011;3367;48.714;8.994;2024-03-02T05:53:00;15.23;;;7.10;;
6661;SDS011;3367;48.714;8.994;2024-03-02T05:55:26;14.10;;;6.97;;
6661;SDS011;3367;48.714;8.994;2024-03-02T05:57:56;16.17;;;7.47;;
6661;SDS011;3367;48.714;8.994;2024-03-02T06:03:25;16.73;;;7.33;;
6661;SDS011;3367;48.714;8.994;2024-03-02T06:05:56;21.70;;;7.83;;
6661;SDS011;3367;48.714;8.994;2024-03-02T06:08:23;16.40;;;7.53;;
6661;SDS011;3367;48.714;8.994;2024-03-02T06:10:52;9.30;;;5.70;;
6661;SDS011;3367;48.714;8.994;2024-03-02T06:13:19;19.13;;;7.83;;
6661;SDS011;3367;48.714;8.994;2024-03-02T06:15:48;12.53;;;6.67;;
6661;SDS011;3367;48.714;8.994;2024-03-02T06:18:16;15.57;;;8.10;;
6661;SDS011;3367;48.714;8.994;2024-03-02T06:20:43;20.00;;;7.13;;
6661;SDS011;3367;48.714;8.994;2024-03-02T06:23:17;16.37;;;8.00;;
6661;SDS011;3367;48.714;8.994;2024-03-02T06:25:47;15.10;;;7.50;;
6661;SDS011;3367;48.714;8.994;2024-03-02T06:28:22;14.63;;;7.20;;
6661;SDS011;3367;48.714;8.994;2024-03-02T06:30:49;19.97;;;7.30;;
6661;SDS011;3367;48.714;8.994;2024-03-02T06:33:27;18.23;;;8.63;;
6661;SDS011;3367;48.714;8.994;2024-03-02T06:35:54;17.73;;;7.50;;
6661;SDS011;3367;48.714;8.994;2024-03-02T06:38:21;18.23;;;7.60;;
6661;SDS011;3367;48.714;8.994;2024-03-02T06:40:47;11.23;;;6.17;;
6661;SDS011;3367;48.714;8.994;2024-03-02T06:43:23;12.93;;;7.40;;
6661;SDS011;3367;48.714;8.994;2024-03-02T06:45:50;16.03;;;7.80;;
6661;SDS011;3367;48.714;8.994;2024-03-02T06:48:19;16.67;;;7.90;;
6661;SDS011;3367;48.714;8.994;2024-03-02T06:50:50;14.50;;;7.30;;
6661;SDS011;3367;48.714;8.994;2024-03-02T06:53:18;14.50;;;7.20;;
6661;SDS011;3367;48.714;8.994;2024-03-02T06:55:45;13.27;;;6.60;;
6661;SDS011;3367;48.714;8.994;2024-03-02T06:58:12;18.00;;;9.07;;
6661;SDS011;3367;48.714;8.994;2024-03-02T07:00:40;18.63;;;8.70;;
6661;SDS011;3367;48.714;8.994;2024-03-02T07:03:10;15.70;;;8.60;;
6661;SDS011;3367;48.714;8.994;2024-03-02T07:05:40;19.20;;;8.60;;
6661;SDS011;3367;48.714;8.994;2024-03-02T07:08:08;18.13;;;8.13;;
6661;SDS011;3367;48.714;8.994;2024-03-02T07:10:35;13.00;;;6.70;;
6661;SDS011;3367;48.714;8.994;2024-03-02T07:13:02;10.23;;;6.60;;
6661;SDS011;3367;48.714;8.994;2024-03-02T07:15:28;10.10;;;6.10;;
6661;SDS011;3367;48.714;8.994;2024-03-02T07:18:10;7.20;;;4.83;;
6661;SDS011;3367;48.714;8.994;2024-03-02T07:20:36;9.10;;;5.00;;
6661;SDS011;3367;48.714;8.994;2024-03-02T07:23:04;6.60;;;4.47;;
6661;SDS011;3367;48.714;8.994;2024-03-02T07:25:33;10.53;;;5.03;;
6661;SDS011;3367;48.714;8.994;2024-03-02T07:27:59;7.73;;;4.83;;
6661;SDS011;3367;48.714;8.994;2024-03-02T07:30:26;10.70;;;5.13;;
6661;SDS011;3367;48.714;8.994;2024-03-02T07:32:53;10.27;;;5.07;;
6661;SDS011;3367;48.714;8.994;2024-03-02T07:35:20;9.60;;;4.97;;
6661;SDS011;3367;48.714;8.994;2024-03-02T07:37:50;10.80;;;6.00;;
6661;SDS011;3367;48.714;8.994;2024-03-02T07:40:16;8.13;;;5.27;;
6661;SDS011;3367;48.714;8.994;2024-03-02T07:42:45;11.43;;;6.27;;
6661;SDS011;3367;48.714;8.994;2024-03-02T07:45:11;13.70;;;5.53;;
6661;SDS011;3367;48.714;8.994;2024-03-02T07:47:38;13.07;;;5.23;;
6661;SDS011;3367;48.714;8.994;2024-03-02T07:50:05;10.40;;;5.13;;
6661;SDS011;3367;48.714;8.994;2024-03-02T07:52:32;10.97;;;6.60;;
6661;SDS011;3367;48.714;8.994;2024-03-02T07:54:59;14.10;;;6.17;;
6661;SDS011;3367;48.714;8.994;2024-03-02T07:57:26;12.80;;;5.83;;
6661;SDS011;3367;48.714;8.994;2024-03-02T07:59:54;11.20;;;5.93;;
6661;SDS011;3367;48.714;8.994;2024-03-02T08:02:20;12.13;;;6.47;;
6661;SDS011;3367;48.714;8.994;2024-03-02T08:04:47;13.23;;;7.00;;
6661;SDS011;3367;48.714;8.994;2024-03-02T08:07:14;9.33;;;6.03;;
6661;SDS011;3367;48.714;8.994;2024-03-02T08:09:41;10.83;;;6.67;;
6661;SDS011;3367;48.714;8.994;2024-03-02T08:12:08;9.10;;;6.50;;
6661;SDS011;3367;48.714;8.994;2024-03-02T08:14:35;11.40;;;6.63;;
6661;SDS011;3367;48.714;8.994;2024-03-02T08:17:03;10.80;;;6.50;;
6661;SDS011;3367;48.714;8.994;2024-03-02T08:19:34;14.20;;;7.47;;
6661;SDS011;3367;48.714;8.994;2024-03-02T08:22:01;9.40;;;5.90;;
6661;SDS011;3367;48.714;8.994;2024-03-02T08:24:28;9.00;;;5.20;;
6661;SDS011;3367;48.714;8.994;2024-03-02T08:26:55;10.40;;;5.47;;
6661;SDS011;3367;48.714;8.994;2024-03-02T08:29:22;9.33;;;4.40;;
6661;SDS011;3367;48.714;8.994;2024-03-02T08:31:48;6.23;;;4.40;;
6661;SDS011;3367;48.714;8.994;2024-03-02T08:34:16;8.67;;;5.37;;
6661;SDS011;3367;48.714;8.994;2024-03-02T08:36:43;8.70;;;4.23;;
6661;SDS011;3367;48.714;8.994;2024-03-02T08:39:10;9.63;;;5.23;;
6661;SDS011;3367;48.714;8.994;2024-03-02T08:41:40;8.20;;;5.00;;
6661;SDS011;3367;48.714;8.994;2024-03-02T08:44:07;5.67;;;4.23;;
6661;SDS011;3367;48.714;8.994;2024-03-02T08:46:34;5.93;;;4.40;;
6661;SDS011;3367;48.714;8.994;2024-03-02T08:49:00;9.40;;;4.60;;
6661;SDS011;3367;48.714;8.994;2024-03-02T08:51:28;6.30;;;4.20;;
6661;SDS011;3367;48.714;8.994;2024-03-02T08:53:56;7.33;;;5.20;;
6661;SDS011;3367;48.714;8.994;2024-03-02T08:56:22;6.43;;;4.67;;
6661;SDS011;3367;48.714;8.994;2024-03-02T08:58:49;8.90;;;5.70;;
6661;SDS011;3367;48.714;8.994;2024-03-02T09:01:16;10.33;;;4.97;;
6661;SDS011;3367;48.714;8.994;2024-03-02T09:03:44;6.73;;;4.57;;
6661;SDS011;3367;48.714;8.994;2024-03-02T09:06:11;7.90;;;4.97;;
6661;SDS011;3367;48.714;8.994;2024-03-02T09:08:40;6.33;;;4.37;;
6661;SDS011;3367;48.714;8.994;2024-03-02T09:11:06;9.00;;;4.40;;
6661;SDS011;3367;48.714;8.994;2024-03-02T09:13:33;9.73;;;4.90;;
6661;SDS011;3367;48.714;8.994;2024-03-02T09:16:00;5.40;;;3.40;;
6661;SDS011;3367;48.714;8.994;2024-03-02T09:18:27;4.73;;;3.40;;
6661;SDS011;3367;48.714;8.994;2024-03-02T09:21:02;4.80;;;3.70;;
6661;SDS011;3367;48.714;8.994;2024-03-02T09:23:29;8.03;;;3.60;;
6661;SDS011;3367;48.714;8.994;2024-03-02T09:26:02;5.63;;;3.50;;
6661;SDS011;3367;48.714;8.994;2024-03-02T09:28:35;6.67;;;4.00;;
6661;SDS011;3367;48.714;8.994;2024-03-02T09:31:02;4.53;;;3.03;;
6661;SDS011;3367;48.714;8.994;2024-03-02T09:33:31;5.57;;;3.80;;
6661;SDS011;3367;48.714;8.994;2024-03-02T09:35:58;3.30;;;2.53;;
6661;SDS011;3367;48.714;8.994;2024-03-02T09:38:25;2.80;;;2.47;;
6661;SDS011;3367;48.714;8.994;2024-03-02T09:40:52;4.80;;;2.67;;
6661;SDS011;3367;48.714;8.994;2024-03-02T09:43:20;3.10;;;2.47;;
6661;SDS011;3367;48.714;8.994;2024-03-02T09:45:59;2.10;;;1.90;;
6661;SDS011;3367;48.714;8.994;2024-03-02T09:48:26;2.20;;;2.00;;
6661;SDS011;3367;48.714;8.994;2024-03-02T09:50:52;1.50;;;1.40;;
6661;SDS011;3367;48.714;8.994;2024-03-02T09:53:19;3.20;;;2.20;;
6661;SDS011;3367;48.714;8.994;2024-03-02T09:55:47;2.47;;;2.00;;
6661;SDS011;3367;48.714;8.994;2024-03-02T09:58:14;1.87;;;1.57;;
6661;SDS011;3367;48.714;8.994;2024-03-02T10:00:42;4.17;;;2.27;;
6661;SDS011;3367;48.714;8.994;2024-03-02T10:03:11;1.93;;;1.60;;
6661;SDS011;3367;48.714;8.994;2024-03-02T10:05:38;2.30;;;2.03;;
6661;SDS011;3367;48.714;8.994;2024-03-02T10:08:05;2.17;;;1.93;;
6661;SDS011;3367;48.714;8.994;2024-03-02T10:10:35;1.80;;;1.70;;
6661;SDS011;3367;48.714;8.994;2024-03-02T10:13:08;3.33;;;1.90;;
6661;SDS011;3367;48.714;8.994;2024-03-02T10:15:35;2.07;;;1.63;;
6661;SDS011;3367;48.714;8.994;2024-03-02T10:18:04;2.00;;;1.87;;
6661;SDS011;3367;48.714;8.994;2024-03-02T10:20:34;4.50;;;1.70;;
6661;SDS011;3367;48.714;8.994;2024-03-02T10:23:10;1.80;;;1.03;;
6661;SDS011;3367;48.714;8.994;2024-03-02T10:25:42;2.90;;;1.20;;
6661;SDS011;3367;48.714;8.994;2024-03-02T10:28:15;3.73;;;2.10;;
6661;SDS011;3367;48.714;8.994;2024-03-02T10:30:43;2.80;;;2.10;;
6661;SDS011;3367;48.714;8.994;2024-03-02T10:33:14;1.67;;;1.50;;
6661;SDS011;3367;48.714;8.994;2024-03-02T10:35:49;1.60;;;1.40;;
6661;SDS011;3367;48.714;8.994;2024-03-02T10:38:16;2.00;;;1.20;;
6661;SDS011;3367;48.714;8.994;2024-03-02T10:40:47;1.37;;;1.17;;
6661;SDS011;3367;48.714;8.994;2024-03-02T10:43:26;2.33;;;1.33;;
6661;SDS011;3367;48.714;8.994;2024-03-02T10:45:53;1.40;;;1.30;;
6661;SDS011;3367;48.714;8.994;2024-03-02T10:48:29;1.93;;;1.00;;
6661;SDS011;3367;48.714;8.994;2024-03-02T10:50:57;1.00;;;0.90;;
6661;SDS011;3367;48.714;8.994;2024-03-02T10:53:27;0.80;;;0.80;;
6661;SDS011;3367;48.714;8.994;2024-03-02T10:55:56;1.10;;;1.00;;
6661;SDS011;3367;48.714;8.994;2024-03-02T10:58:31;2.27;;;1.30;;
6661;SDS011;3367;48.714;8.994;2024-03-02T11:00:59;0.70;;;0.63;;
6661;SDS011;3367;48.714;8.994;2024-03-02T11:03:38;1.00;;;0.80;;
6661;SDS011;3367;48.714;8.994;2024-03-02T11:06:07;1.20;;;0.50;;
6661;SDS011;3367;48.714;8.994;2024-03-02T11:08:44;1.00;;;0.90;;
6661;SDS011;3367;48.714;8.994;2024-03-02T11:11:14;0.90;;;0.63;;
6661;SDS011;3367;48.714;8.994;2024-03-02T11:13:47;0.73;;;0.67;;
6661;SDS011;3367;48.714;8.994;2024-03-02T11:16:26;0.90;;;0.80;;
6661;SDS011;3367;48.714;8.994;2024-03-02T11:19:01;0.80;;;0.80;;
6661;SDS011;3367;48.714;8.994;2024-03-02T11:21:31;0.90;;;0.80;;
6661;SDS011;3367;48.714;8.994;2024-03-02T11:23:58;0.90;;;0.60;;
6661;SDS011;3367;48.714;8.994;2024-03-02T11:26:30;0.70;;;0.60;;
6661;SDS011;3367;48.714;8.994;2024-03-02T11:29:05;1.03;;;0.50;;
6661;SDS011;3367;48.714;8.994;2024-03-02T11:34:29;1.03;;;0.60;;
6661;SDS011;3367;48.714;8.994;2024-03-02T11:36:56;0.90;;;0.70;;
6661;SDS011;3367;48.714;8.994;2024-03-02T11:39:27;0.60;;;0.40;;
6661;SDS011;3367;48.714;8.994;2024-03-02T11:41:54;1.50;;;0.67;;
6661;SDS011;3367;48.714;8.994;2024-03-02T11:44:24;0.90;;;0.40;;
6661;SDS011;3367;48.714;8.994;2024-03-02T11:46:58;0.70;;;0.40;;
6661;SDS011;3367;48.714;8.994;2024-03-02T11:49:39;0.70;;;0.60;;
6661;SDS011;3367;48.714;8.994;2024-03-02T11:52:07;1.17;;;0.50;;
6661;SDS011;3367;48.714;8.994;2024-03-02T11:54:36;0.50;;;0.40;;
6661;SDS011;3367;48.714;8.994;2024-03-02T11:57:05;0.60;;;0.60;;
6661;SDS011;3367;48.714;8.994;2024-03-02T11:59:35;0.97;;;0.60;;
6661;SDS011;3367;48.714;8.994;2024-03-02T12:02:02;1.23;;;0.80;;
6661;SDS011;3367;48.714;8.994;2024-03-02T12:04:29;0.50;;;0.33;;
6661;SDS011;3367;48.714;8.994;2024-03-02T12:06:58;0.70;;;0.50;;
6661;SDS011;3367;48.714;8.994;2024-03-02T12:09:26;0.80;;;0.50;;
6661;SDS011;3367;48.714;8.994;2024-03-02T12:12:03;0.90;;;0.60;;
6661;SDS011;3367;48.714;8.994;2024-03-02T12:14:35;0.60;;;0.50;;
6661;SDS011;3367;48.714;8.994;2024-03-02T12:17:03;0.60;;;0.57;;
6661;SDS011;3367;48.714;8.994;2024-03-02T12:19:30;0.83;;;0.77;;
6661;SDS011;3367;48.714;8.994;2024-03-02T12:22:00;0.93;;;0.60;;
6661;SDS011;3367;48.714;8.994;2024-03-02T12:24:29;0.67;;;0.50;;
6661;SDS011;3367;48.714;8.994;2024-03-02T12:26:56;3.80;;;0.70;;
6661;SDS011;3367;48.714;8.994;2024-03-02T12:29:23;0.90;;;0.70;;
6661;SDS011;3367;48.714;8.994;2024-03-02T12:31:51;0.70;;;0.70;;
6661;SDS011;3367;48.714;8.994;2024-03-02T12:34:18;1.10;;;0.67;;
6661;SDS011;3367;48.714;8.994;2024-03-02T12:36:45;0.87;;;0.63;;
6661;SDS011;3367;48.714;8.994;2024-03-02T12:39:16;1.87;;;0.90;;
6661;SDS011;3367;48.714;8.994;2024-03-02T12:41:45;0.80;;;0.60;;
6661;SDS011;3367;48.714;8.994;2024-03-02T12:44:18;1.20;;;0.97;;
6661;SDS011;3367;48.714;8.994;2024-03-02T12:46:46;0.63;;;0.50;;
6661;SDS011;3367;48.714;8.994;2024-03-02T12:49:14;1.47;;;1.30;;
6661;SDS011;3367;48.714;8.994;2024-03-02T12:51:42;0.80;;;0.70;;
6661;SDS011;3367;48.714;8.994;2024-03-02T12:54:12;1.10;;;0.90;;
6661;SDS011;3367;48.714;8.994;2024-03-02T12:56:40;0.80;;;0.80;;
6661;SDS011;3367;48.714;8.994;2024-03-02T12:59:10;0.70;;;0.70;;
6661;SDS011;3367;48.714;8.994;2024-03-02T13:01:49;1.00;;;0.70;;
6661;SDS011;3367;48.714;8.994;2024-03-02T13:04:22;0.60;;;0.53;;
6661;SDS011;3367;48.714;8.994;2024-03-02T13:06:56;0.77;;;0.67;;
6661;SDS011;3367;48.714;8.994;2024-03-02T13:09:29;1.80;;;1.10;;
6661;SDS011;3367;48.714;8.994;2024-03-02T13:11:57;2.07;;;1.10;;
6661;SDS011;3367;48.714;8.994;2024-03-02T13:14:25;0.80;;;0.60;;
6661;SDS011;3367;48.714;8.994;2024-03-02T13:16:51;0.67;;;0.60;;
6661;SDS011;3367;48.714;8.994;2024-03-02T13:19:18;1.13;;;0.90;;
6661;SDS011;3367;48.714;8.994;2024-03-02T13:21:48;0.90;;;0.80;;
6661;SDS011;3367;48.714;8.994;2024-03-02T13:24:16;4.40;;;1.30;;
6661;SDS011;3367;48.714;8.994;2024-03-02T13:26:46;0.60;;;0.50;;
6661;SDS011;3367;48.714;8.994;2024-03-02T13:29:14;1.80;;;0.67;;
6661;SDS011;3367;48.714;8.994;2024-03-02T13:31:40;1.47;;;0.90;;
6661;SDS011;3367;48.714;8.994;2024-03-02T13:34:07;0.97;;;0.87;;
6661;SDS011;3367;48.714;8.994;2024-03-02T13:36:34;0.63;;;0.53;;
6661;SDS011;3367;48.714;8.994;2024-03-02T13:39:09;2.53;;;1.07;;
6661;SDS011;3367;48.714;8.994;2024-03-02T13:41:36;4.33;;;2.30;;
6661;SDS011;3367;48.714;8.994;2024-03-02T13:44:03;0.83;;;0.57;;
6661;SDS011;3367;48.714;8.994;2024-03-02T13:46:31;3.90;;;1.30;;
6661;SDS011;3367;48.714;8.994;2024-03-02T13:48:58;0.70;;;0.60;;
6661;SDS011;3367;48.714;8.994;2024-03-02T13:51:29;3.03;;;0.70;;
6661;SDS011;3367;48.714;8.994;2024-03-02T13:53:58;2.70;;;2.00;;
6661;SDS011;3367;48.714;8.994;2024-03-02T13:56:28;1.47;;;0.70;;
6661;SDS011;3367;48.714;8.994;2024-03-02T13:58:55;1.57;;;1.00;;
6661;SDS011;3367;48.714;8.994;2024-03-02T14:01:21;1.00;;;0.80;;
6661;SDS011;3367;48.714;8.994;2024-03-02T14:03:53;0.80;;;0.63;;
6661;SDS011;3367;48.714;8.994;2024-03-02T14:06:36;2.37;;;1.37;;
6661;SDS011;3367;48.714;8.994;2024-03-02T14:09:08;0.90;;;0.80;;
6661;SDS011;3367;48.714;8.994;2024-03-02T14:11:35;1.00;;;0.50;;
6661;SDS011;3367;48.714;8.994;2024-03-02T14:14:04;0.83;;;0.63;;
6661;SDS011;3367;48.714;8.994;2024-03-02T14:16:34;1.30;;;0.50;;
6661;SDS011;3367;48.714;8.994;2024-03-02T14:19:02;1.00;;;0.60;;
6661;SDS011;3367;48.714;8.994;2024-03-02T14:21:30;3.03;;;1.87;;
6661;SDS011;3367;48.714;8.994;2024-03-02T14:23:57;1.17;;;1.07;;
6661;SDS011;3367;48.714;8.994;2024-03-02T14:26:26;0.60;;;0.47;;
6661;SDS011;3367;48.714;8.994;2024-03-02T14:28:53;0.70;;;0.53;;
6661;SDS011;3367;48.714;8.994;2024-03-02T14:31:20;0.70;;;0.40;;
6661;SDS011;3367;48.714;8.994;2024-03-02T14:33:47;1.33;;;0.60;;
6661;SDS011;3367;48.714;8.994;2024-03-02T14:36:19;0.60;;;0.50;;
6661;SDS011;3367;48.714;8.994;2024-03-02T14:38:52;0.73;;;0.60;;
6661;SDS011;3367;48.714;8.994;2024-03-02T14:41:22;0.60;;;0.47;;
6661;SDS011;3367;48.714;8.994;2024-03-02T14:43:52;0.70;;;0.50;;
6661;SDS011;3367;48.714;8.994;2024-03-02T14:46:19;0.50;;;0.50;;
6661;SDS011;3367;48.714;8.994;2024-03-02T14:48:48;0.80;;;0.60;;
6661;SDS011;3367;48.714;8.994;2024-03-02T14:51:19;0.80;;;0.77;;
6661;SDS011;3367;48.714;8.994;2024-03-02T14:53:49;0.90;;;0.77;;
6661;SDS011;3367;48.714;8.994;2024-03-02T14:56:24;0.70;;;0.60;;
6661;SDS011;3367;48.714;8.994;2024-03-02T14:58:51;1.00;;;0.60;;
6661;SDS011;3367;48.714;8.994;2024-03-02T15:01:18;0.73;;;0.70;;
6661;SDS011;3367;48.714;8.994;2024-03-02T15:03:47;0.73;;;0.73;;
6661;SDS011;3367;48.714;8.994;2024-03-02T15:06:14;0.90;;;0.57;;
6661;SDS011;3367;48.714;8.994;2024-03-02T15:08:51;0.67;;;0.60;;
6661;SDS011;3367;48.714;8.994;2024-03-02T15:11:28;0.90;;;0.73;;
6661;SDS011;3367;48.714;8.994;2024-03-02T15:13:56;0.60;;;0.43;;
6661;SDS011;3367;48.714;8.994;2024-03-02T15:16:24;0.97;;;0.60;;
6661;SDS011;3367;48.714;8.994;2024-03-02T15:18:51;1.27;;;0.67;;
6661;SDS011;3367;48.714;8.994;2024-03-02T15:21:17;0.60;;;0.57;;
6661;SDS011;3367;48.714;8.994;2024-03-02T15:23:48;0.80;;;0.70;;
6661;SDS011;3367;48.714;8.994;2024-03-02T15:26:18;1.40;;;1.07;;
6661;SDS011;3367;48.714;8.994;2024-03-02T15:28:48;2.53;;;0.73;;